Time;durP1;ratioP1;P1;durP2;ratioP2;P2;SDS_P1;SDS_P2;PMS_P1;PMS_P2;Temp;Humidity;BMP_temperature;BMP_pressure;BME280_temperature;BME280_humidity;BME280_pressure;Samples;Min_cycle;Max_cycle;Signal;HPM_P1;HPM_P2
2020/12/04 00:00:41;;;;;;;22.30;12.00;;;;;;;;;;5012144;28;20050;-60
2020/12/04 00:03:07;;;;;;;19.92;12.75;;;;;;;;;;5011967;28;20053;-61
2020/12/04 00:05:34;;;;;;;21.10;12.30;;;;;;;;;;5011439;28;20390;-61
2020/12/04 00:08:00;;;;;;;20.88;12.15;;;;;;;;;;5011736;28;20432;-61
2020/12/04 00:10:26;;;;;;;24.13;14.52;;;;;;;;;;5011983;28;20485;-60
2020/12/04 00:12:52;;;;;;;21.40;13.23;;;;;;;;;;4991927;28;20053;-60
2020/12/04 00:15:19;;;;;;;22.63;13.82;;;;;;;;;;4991783;28;20050;-60
2020/12/04 00:17:45;;;;;;;22.05;11.90;;;;;;;;;;4992228;28;20066;-60
2020/12/04 00:20:11;;;;;;;20.05;11.73;;;;;;;;;;5008637;28;20065;-60
2020/12/04 00:22:37;;;;;;;22.52;12.15;;;;;;;;;;5011386;28;20146;-60
2020/12/04 00:25:03;;;;;;;19.70;11.80;;;;;;;;;;5011368;28;20042;-61
2020/12/04 00:27:29;;;;;;;21.15;12.77;;;;;;;;;;5011216;28;20058;-61
2020/12/04 00:29:56;;;;;;;25.48;13.40;;;;;;;;;;5011548;28;20042;-60
2020/12/04 00:32:22;;;;;;;22.05;13.38;;;;;;;;;;5011410;28;20057;-61
2020/12/04 00:34:48;;;;;;;20.42;11.60;;;;;;;;;;5011379;28;20285;-60
2020/12/04 00:37:14;;;;;;;22.15;13.68;;;;;;;;;;5010965;28;20503;-60
2020/12/04 00:39:41;;;;;;;18.92;12.18;;;;;;;;;;5011278;28;20050;-60
2020/12/04 00:42:07;;;;;;;21.52;12.82;;;;;;;;;;5011213;28;20056;-61
2020/12/04 00:44:33;;;;;;;23.02;12.50;;;;;;;;;;5011067;28;20050;-61
2020/12/04 00:47:00;;;;;;;22.00;12.50;;;;;;;;;;5010767;28;20057;-61
2020/12/04 00:49:27;;;;;;;22.05;13.32;;;;;;;;;;5011463;28;20057;-60
2020/12/04 00:51:53;;;;;;;21.30;12.00;;;;;;;;;;5010779;28;20057;-60
2020/12/04 00:54:19;;;;;;;22.20;12.20;;;;;;;;;;5012630;28;20061;-61
2020/12/04 00:56:46;;;;;;;23.80;12.35;;;;;;;;;;5010409;28;20054;-61
2020/12/04 00:59:12;;;;;;;20.75;12.02;;;;;;;;;;5011392;28;20054;-61
2020/12/04 01:01:38;;;;;;;21.05;12.95;;;;;;;;;;4994764;28;20513;-60
2020/12/04 01:04:04;;;;;;;20.23;11.70;;;;;;;;;;5010759;28;20057;-60
2020/12/04 01:06:30;;;;;;;24.20;13.68;;;;;;;;;;5010463;28;20046;-61
2020/12/04 01:08:57;;;;;;;24.23;13.27;;;;;;;;;;5010908;28;20100;-60
2020/12/04 01:11:25;;;;;;;21.65;12.82;;;;;;;;;;5011242;28;20054;-61
2020/12/04 01:13:51;;;;;;;22.75;12.15;;;;;;;;;;5010646;28;20053;-60
2020/12/04 01:16:17;;;;;;;22.38;12.88;;;;;;;;;;5010525;28;20046;-61
2020/12/04 01:18:44;;;;;;;19.77;12.63;;;;;;;;;;5010916;28;20045;-60
2020/12/04 01:21:14;;;;;;;21.75;12.73;;;;;;;;;;5011046;28;20046;-61
2020/12/04 01:23:40;;;;;;;18.05;10.85;;;;;;;;;;5010816;28;20511;-61
2020/12/04 01:26:08;;;;;;;19.77;11.00;;;;;;;;;;5010020;28;20050;-61
2020/12/04 01:28:34;;;;;;;19.17;11.55;;;;;;;;;;5011058;28;20057;-61
2020/12/04 01:31:00;;;;;;;21.23;12.25;;;;;;;;;;5011342;28;20049;-61
2020/12/04 01:33:27;;;;;;;19.23;11.40;;;;;;;;;;5012636;28;20052;-61
2020/12/04 01:35:53;;;;;;;18.65;11.88;;;;;;;;;;5010584;28;20046;-61
2020/12/04 01:38:19;;;;;;;17.95;10.90;;;;;;;;;;5010424;28;20081;-61
2020/12/04 01:40:46;;;;;;;21.38;11.75;;;;;;;;;;5010438;28;20050;-61
2020/12/04 01:43:12;;;;;;;21.77;11.73;;;;;;;;;;5010678;28;20516;-61
2020/12/04 01:45:38;;;;;;;18.52;11.70;;;;;;;;;;5009877;28;20049;-61
2020/12/04 01:48:04;;;;;;;20.40;11.73;;;;;;;;;;5010729;28;20527;-60
2020/12/04 01:50:31;;;;;;;20.80;11.40;;;;;;;;;;5010032;28;20049;-61
2020/12/04 01:52:58;;;;;;;21.75;12.25;;;;;;;;;;5010731;28;20050;-61
2020/12/04 01:55:24;;;;;;;19.40;11.40;;;;;;;;;;5010553;28;20046;-61
2020/12/04 01:57:52;;;;;;;17.65;10.55;;;;;;;;;;5014394;28;20052;-61
2020/12/04 02:00:19;;;;;;;19.77;11.68;;;;;;;;;;5014509;28;20050;-61
2020/12/04 02:02:46;;;;;;;19.77;11.88;;;;;;;;;;5013834;28;20053;-61
2020/12/04 02:05:13;;;;;;;18.67;11.50;;;;;;;;;;5014174;28;20050;-61
2020/12/04 02:07:56;;;;;;;19.92;12.35;;;;;;;;;;5030271;28;20054;-61
2020/12/04 02:10:28;;;;;;;21.70;12.43;;;;;;;;;;4999288;28;20064;-61
2020/12/04 02:12:55;;;;;;;21.83;12.70;;;;;;;;;;4998521;28;20485;-61
2020/12/04 02:15:21;;;;;;;19.25;12.30;;;;;;;;;;4994065;28;20061;-61
2020/12/04 02:17:47;;;;;;;18.90;11.80;;;;;;;;;;4994345;28;20054;-61
2020/12/04 02:20:13;;;;;;;20.23;11.60;;;;;;;;;;4978305;28;20051;-61
2020/12/04 02:22:40;;;;;;;17.35;10.40;;;;;;;;;;4994192;28;20073;-61
2020/12/04 02:25:08;;;;;;;18.60;11.32;;;;;;;;;;5000763;28;20081;-60
2020/12/04 02:27:44;;;;;;;21.55;10.88;;;;;;;;;;5013820;28;20053;-61
2020/12/04 02:30:12;;;;;;;19.88;11.38;;;;;;;;;;5014012;28;20061;-61
2020/12/04 02:32:38;;;;;;;21.88;12.13;;;;;;;;;;5013715;28;20049;-61
2020/12/04 02:35:04;;;;;;;19.92;11.10;;;;;;;;;;5013208;28;20057;-61
2020/12/04 02:37:31;;;;;;;21.83;12.73;;;;;;;;;;5014604;28;20057;-61
2020/12/04 02:39:57;;;;;;;21.42;12.48;;;;;;;;;;5013604;28;20053;-61
2020/12/04 02:42:23;;;;;;;19.58;11.60;;;;;;;;;;5013197;28;20054;-61
2020/12/04 02:44:49;;;;;;;20.02;11.55;;;;;;;;;;5013003;28;20049;-61
2020/12/04 02:47:15;;;;;;;19.25;10.98;;;;;;;;;;5013107;28;20501;-61
2020/12/04 02:49:41;;;;;;;18.73;11.32;;;;;;;;;;4997226;28;20493;-61
2020/12/04 02:52:07;;;;;;;18.50;10.38;;;;;;;;;;5013463;28;20049;-61
2020/12/04 02:54:33;;;;;;;18.10;11.18;;;;;;;;;;5013280;28;20050;-61
2020/12/04 02:57:00;;;;;;;19.50;11.43;;;;;;;;;;5012507;28;20061;-61
2020/12/04 02:59:26;;;;;;;19.10;10.95;;;;;;;;;;5013345;28;20050;-60
2020/12/04 03:01:52;;;;;;;16.73;9.82;;;;;;;;;;5013075;28;20057;-61
2020/12/04 03:07:59;;;;;;;17.45;10.70;;;;;;;;;;5005413;23;20097;-61
2020/12/04 03:10:25;;;;;;;18.35;10.35;;;;;;;;;;5013311;28;20060;-61
2020/12/04 03:12:51;;;;;;;18.45;11.82;;;;;;;;;;5012985;28;20075;-61
2020/12/04 03:15:17;;;;;;;16.77;10.48;;;;;;;;;;5012094;28;20539;-61
2020/12/04 03:17:44;;;;;;;20.30;10.70;;;;;;;;;;5012788;28;20480;-61
2020/12/04 03:20:10;;;;;;;19.75;11.05;;;;;;;;;;5013262;28;20412;-61
2020/12/04 03:22:37;;;;;;;19.02;10.73;;;;;;;;;;5012854;28;20128;-61
2020/12/04 03:25:03;;;;;;;19.90;11.32;;;;;;;;;;5012156;28;20049;-61
2020/12/04 03:27:29;;;;;;;19.15;11.15;;;;;;;;;;5012047;28;20054;-60
2020/12/04 03:29:55;;;;;;;17.52;9.82;;;;;;;;;;5012732;28;20082;-61
2020/12/04 03:32:21;;;;;;;18.13;10.98;;;;;;;;;;5012928;28;20050;-61
2020/12/04 03:34:48;;;;;;;16.48;10.23;;;;;;;;;;5012413;28;20050;-60
2020/12/04 03:37:14;;;;;;;15.85;9.75;;;;;;;;;;5011848;28;20050;-61
2020/12/04 03:39:40;;;;;;;18.73;10.77;;;;;;;;;;5012348;28;20129;-61
2020/12/04 03:42:06;;;;;;;16.05;10.82;;;;;;;;;;5012534;28;20049;-61
2020/12/04 03:44:32;;;;;;;17.05;10.32;;;;;;;;;;5012465;28;20412;-61
2020/12/04 03:46:58;;;;;;;16.10;9.88;;;;;;;;;;5011378;28;20497;-61
2020/12/04 03:49:25;;;;;;;20.25;11.00;;;;;;;;;;5012376;28;20046;-61
2020/12/04 03:51:51;;;;;;;18.17;11.05;;;;;;;;;;5012334;28;20392;-61
2020/12/04 03:54:18;;;;;;;16.65;10.13;;;;;;;;;;5012336;28;20057;-61
2020/12/04 03:56:44;;;;;;;18.95;12.13;;;;;;;;;;5011080;28;20049;-61
2020/12/04 03:59:10;;;;;;;18.38;11.20;;;;;;;;;;5012224;28;20428;-61
2020/12/04 04:01:36;;;;;;;18.23;10.27;;;;;;;;;;5011898;28;20054;-61
2020/12/04 04:04:02;;;;;;;18.92;11.05;;;;;;;;;;5012090;28;20046;-60
2020/12/04 04:06:29;;;;;;;20.52;11.10;;;;;;;;;;5011062;28;20481;-60
2020/12/04 04:08:55;;;;;;;18.75;11.07;;;;;;;;;;5012955;28;20489;-60
2020/12/04 04:11:21;;;;;;;17.65;10.57;;;;;;;;;;5011908;28;20077;-62
2020/12/04 04:13:47;;;;;;;19.00;11.38;;;;;;;;;;5011795;28;20053;-61
2020/12/04 04:16:13;;;;;;;21.88;11.63;;;;;;;;;;5011226;28;20046;-61
2020/12/04 04:18:39;;;;;;;20.08;11.63;;;;;;;;;;5011103;28;20405;-61
2020/12/04 04:21:09;;;;;;;17.17;10.90;;;;;;;;;;5011847;28;20050;-60
2020/12/04 04:23:36;;;;;;;20.25;11.82;;;;;;;;;;5011614;28;20489;-60
2020/12/04 04:26:03;;;;;;;18.55;11.10;;;;;;;;;;5010863;28;20050;-60
2020/12/04 04:28:29;;;;;;;18.30;10.98;;;;;;;;;;4995268;28;20374;-61
2020/12/04 04:30:55;;;;;;;16.92;10.05;;;;;;;;;;5011784;28;20253;-60
2020/12/04 04:33:22;;;;;;;17.50;11.18;;;;;;;;;;5011395;28;20056;-61
2020/12/04 04:35:48;;;;;;;20.83;11.38;;;;;;;;;;5010427;28;20046;-61
2020/12/04 04:38:14;;;;;;;15.55;9.27;;;;;;;;;;5011462;28;20500;-61
2020/12/04 04:40:40;;;;;;;15.98;9.73;;;;;;;;;;5011370;28;20473;-61
2020/12/04 04:43:11;;;;;;;17.95;10.52;;;;;;;;;;5011382;28;20057;-61
2020/12/04 04:45:47;;;;;;;15.77;9.88;;;;;;;;;;5010302;28;20049;-61
2020/12/04 04:48:23;;;;;;;17.90;10.18;;;;;;;;;;5011569;28;20058;-61
2020/12/04 04:50:53;;;;;;;16.45;10.00;;;;;;;;;;5011244;28;20050;-61
2020/12/04 04:53:19;;;;;;;18.10;10.90;;;;;;;;;;5011505;28;20050;-61
2020/12/04 04:55:45;;;;;;;16.73;10.73;;;;;;;;;;5009998;28;20049;-61
2020/12/04 04:58:12;;;;;;;17.08;10.18;;;;;;;;;;4995062;28;20057;-61
2020/12/04 05:00:38;;;;;;;15.75;9.77;;;;;;;;;;5010900;28;20061;-61
2020/12/04 05:03:08;;;;;;;16.73;10.57;;;;;;;;;;5011160;28;20046;-61
2020/12/04 05:05:41;;;;;;;19.77;10.57;;;;;;;;;;5009912;28;20416;-61
2020/12/04 05:08:13;;;;;;;;;;;;;;;;;;5011329;28;20041;-61
2020/12/04 05:10:40;;;;;;;17.05;10.02;;;;;;;;;;5010688;28;19928;-61
2020/12/04 05:13:06;;;;;;;16.20;10.20;;;;;;;;;;5011314;28;20405;-61
2020/12/04 05:15:33;;;;;;;14.63;8.88;;;;;;;;;;5009952;28;20046;-61
2020/12/04 05:18:10;;;;;;;17.70;10.25;;;;;;;;;;5010774;28;20050;-61
2020/12/04 05:20:39;;;;;;;16.10;10.00;;;;;;;;;;5010813;28;20096;-60
2020/12/04 05:23:05;;;;;;;16.05;10.10;;;;;;;;;;5011094;28;20054;-61
2020/12/04 05:25:36;;;;;;;16.10;9.88;;;;;;;;;;5009705;28;20073;-61
2020/12/04 05:28:14;;;;;;;22.00;10.27;;;;;;;;;;5010823;28;20065;-61
2020/12/04 05:30:44;;;;;;;15.95;10.05;;;;;;;;;;5009897;28;20058;-61
2020/12/04 05:33:10;;;;;;;16.65;10.27;;;;;;;;;;5010817;28;20061;-61
2020/12/04 05:35:36;;;;;;;18.95;10.57;;;;;;;;;;5009785;28;20049;-61
2020/12/04 05:38:08;;;;;;;17.95;10.50;;;;;;;;;;5010647;28;20412;-61
2020/12/04 05:40:35;;;;;;;17.38;10.77;;;;;;;;;;5010457;28;20057;-60
2020/12/04 05:43:02;;;;;;;18.13;10.18;;;;;;;;;;5010581;28;20412;-60
2020/12/04 05:45:29;;;;;;;17.38;10.50;;;;;;;;;;5009588;28;20058;-60
2020/12/04 05:47:56;;;;;;;19.52;11.35;;;;;;;;;;5010771;28;20485;-61
2020/12/04 05:50:22;;;;;;;15.32;9.98;;;;;;;;;;5010692;28;20229;-61
2020/12/04 05:52:49;;;;;;;15.60;9.95;;;;;;;;;;5010614;28;20057;-61
2020/12/04 05:55:15;;;;;;;16.25;9.52;;;;;;;;;;5009316;28;20050;-61
2020/12/04 05:57:55;;;;;;;17.35;9.70;;;;;;;;;;5010473;28;20076;-61
2020/12/04 06:00:24;;;;;;;15.90;9.85;;;;;;;;;;5010245;28;20056;-61
2020/12/04 06:02:57;;;;;;;17.40;10.00;;;;;;;;;;5010127;28;20072;-61
2020/12/04 06:05:26;;;;;;;17.13;9.77;;;;;;;;;;5009995;28;20417;-61
2020/12/04 06:07:59;;;;;;;17.42;10.55;;;;;;;;;;5010203;28;20057;-61
2020/12/04 06:10:26;;;;;;;19.17;10.20;;;;;;;;;;5009915;28;20081;-60
2020/12/04 06:12:53;;;;;;;16.42;9.82;;;;;;;;;;5010506;28;20054;-61
2020/12/04 06:15:27;;;;;;;14.20;9.45;;;;;;;;;;5009790;28;20054;-61
2020/12/04 06:18:07;;;;;;;14.35;9.40;;;;;;;;;;5010563;28;20481;-60
2020/12/04 06:20:45;;;;;;;14.98;9.32;;;;;;;;;;5009853;28;20060;-61
2020/12/04 06:23:19;;;;;;;19.27;10.23;;;;;;;;;;5009815;28;20060;-61
2020/12/04 06:25:52;;;;;;;20.25;10.15;;;;;;;;;;5009585;28;20050;-61
2020/12/04 06:28:19;;;;;;;15.98;9.23;;;;;;;;;;5010487;28;20134;-60
2020/12/04 06:31:06;;;;;;;17.10;9.80;;;;;;;;;;5010012;28;20046;-61
2020/12/04 06:33:49;;;;;;;16.13;8.98;;;;;;;;;;5010442;28;20476;-61
2020/12/04 06:36:30;;;;;;;17.60;9.30;;;;;;;;;;5010492;28;20065;-62
2020/12/04 06:38:57;;;;;;;14.68;8.18;;;;;;;;;;5011288;28;20057;-61
2020/12/04 06:41:34;;;;;;;15.07;7.85;;;;;;;;;;5010347;28;20053;-61
2020/12/04 06:44:01;;;;;;;15.85;9.00;;;;;;;;;;5013462;28;20058;-62
2020/12/04 06:46:41;;;;;;;14.48;8.57;;;;;;;;;;5013156;28;20042;-62
2020/12/04 06:52:04;;;;;;;17.67;10.75;;;;;;;;;;5014926;28;20046;-61
2020/12/04 06:54:32;;;;;;;16.52;9.63;;;;;;;;;;5012803;28;20054;-61
2020/12/04 06:56:59;;;;;;;15.07;8.63;;;;;;;;;;5012840;28;20041;-61
2020/12/04 06:59:29;;;;;;;15.25;8.45;;;;;;;;;;5013533;28;20057;-61
2020/12/04 07:02:10;;;;;;;14.43;8.35;;;;;;;;;;5013176;28;20077;-61
2020/12/04 07:04:41;;;;;;;16.63;8.90;;;;;;;;;;5012632;28;20252;-62
2020/12/04 07:07:10;;;;;;;13.48;7.82;;;;;;;;;;5012954;28;20046;-61
2020/12/04 07:09:37;;;;;;;23.50;8.95;;;;;;;;;;5012819;28;20085;-61
2020/12/04 07:12:04;;;;;;;13.93;8.98;;;;;;;;;;5013143;28;20492;-61
2020/12/04 07:14:31;;;;;;;13.07;8.27;;;;;;;;;;5013003;28;20054;-62
2020/12/04 07:16:57;;;;;;;14.15;8.07;;;;;;;;;;5012085;28;20050;-62
2020/12/04 07:19:24;;;;;;;16.17;7.97;;;;;;;;;;5012595;28;20065;-61
2020/12/04 07:21:51;;;;;;;14.75;8.75;;;;;;;;;;5012616;28;20061;-61
2020/12/04 07:24:17;;;;;;;13.23;8.05;;;;;;;;;;5013004;28;20046;-63
2020/12/04 07:26:47;;;;;;;16.70;8.02;;;;;;;;;;5011628;28;20050;-62
2020/12/04 07:29:13;;;;;;;15.60;8.50;;;;;;;;;;5012449;28;20049;-61
2020/12/04 07:31:40;;;;;;;15.95;9.00;;;;;;;;;;4980191;28;20049;-61
2020/12/04 07:34:06;;;;;;;13.15;7.65;;;;;;;;;;4980411;28;20065;-61
2020/12/04 07:36:33;;;;;;;14.70;8.13;;;;;;;;;;4995773;28;20053;-61
2020/12/04 07:39:00;;;;;;;16.75;7.78;;;;;;;;;;5012719;28;20050;-61
2020/12/04 07:41:36;;;;;;;11.00;6.93;;;;;;;;;;5012151;28;20057;-61
2020/12/04 07:44:05;;;;;;;14.45;7.82;;;;;;;;;;5012715;28;20050;-61
2020/12/04 07:46:35;;;;;;;16.63;8.30;;;;;;;;;;5011781;28;20137;-61
2020/12/04 07:49:13;;;;;;;13.48;8.38;;;;;;;;;;5012515;28;20381;-62
2020/12/04 07:51:41;;;;;;;16.17;8.27;;;;;;;;;;5009370;28;20382;-61
2020/12/04 07:54:20;;;;;;;12.15;8.07;;;;;;;;;;5009688;28;20050;-62
2020/12/04 07:56:53;;;;;;;13.00;8.65;;;;;;;;;;5009477;28;20760;-63
2020/12/04 07:59:23;;;;;;;13.10;8.75;;;;;;;;;;5009987;28;20049;-62
2020/12/04 08:01:49;;;;;;;13.02;8.30;;;;;;;;;;5009755;28;20554;-62
2020/12/04 08:04:19;;;;;;;14.40;7.82;;;;;;;;;;5009586;28;20049;-62
2020/12/04 08:06:48;;;;;;;13.32;8.23;;;;;;;;;;5009401;28;20524;-62
2020/12/04 08:09:17;;;;;;;11.57;8.10;;;;;;;;;;5010024;28;20092;-62
2020/12/04 08:11:48;;;;;;;16.17;8.38;;;;;;;;;;4989867;28;20493;-62
2020/12/04 08:14:15;;;;;;;16.92;8.68;;;;;;;;;;4990356;28;20547;-62
2020/12/04 08:16:42;;;;;;;18.63;8.52;;;;;;;;;;4989116;28;20054;-63
2020/12/04 08:19:13;;;;;;;13.00;8.82;;;;;;;;;;5006550;28;20050;-63
2020/12/04 08:22:04;;;;;;;12.68;8.00;;;;;;;;;;4990181;28;20489;-63
2020/12/04 08:24:35;;;;;;;15.18;8.27;;;;;;;;;;4996607;28;20046;-63
2020/12/04 08:27:22;;;;;;;15.02;8.35;;;;;;;;;;5009270;28;20050;-63
2020/12/04 08:30:15;;;;;;;13.07;8.02;;;;;;;;;;5008970;28;20057;-63
2020/12/04 08:32:43;;;;;;;13.20;8.00;;;;;;;;;;5010488;28;20050;-62
2020/12/04 08:35:24;;;;;;;14.23;8.25;;;;;;;;;;5010949;28;20046;-62
2020/12/04 08:37:51;;;;;;;13.50;8.65;;;;;;;;;;4991772;28;20057;-61
2020/12/04 08:40:26;;;;;;;14.50;8.75;;;;;;;;;;4991916;28;20050;-61
2020/12/04 08:42:53;;;;;;;17.42;9.20;;;;;;;;;;4991523;28;20057;-61
2020/12/04 08:45:27;;;;;;;17.60;9.80;;;;;;;;;;4991339;28;20062;-62
2020/12/04 08:51:15;;;;;;;14.43;7.97;;;;;;;;;;5031579;23;20060;-62
2020/12/04 08:53:41;;;;;;;13.40;8.43;;;;;;;;;;5029466;28;20060;-62
2020/12/04 08:56:08;;;;;;;13.05;7.53;;;;;;;;;;5029540;28;20428;-61
2020/12/04 08:58:37;;;;;;;13.45;8.02;;;;;;;;;;5030063;28;20045;-61
2020/12/04 09:01:03;;;;;;;13.45;7.68;;;;;;;;;;5029581;28;20666;-61
2020/12/04 09:10:21;;;;;;;15.38;8.10;;;;;;;;;;5027636;23;20053;-61
2020/12/04 09:12:48;;;;;;;15.90;8.13;;;;;;;;;;5018355;28;20041;-61
2020/12/04 09:15:17;;;;;;;14.45;7.60;;;;;;;;;;5031093;28;20049;-61
2020/12/04 09:17:43;;;;;;;12.00;7.88;;;;;;;;;;5019445;28;20057;-61
2020/12/04 09:20:11;;;;;;;13.57;8.18;;;;;;;;;;5018532;28;20049;-61
2020/12/04 09:22:38;;;;;;;11.77;7.63;;;;;;;;;;5016775;28;20401;-62
2020/12/04 09:25:06;;;;;;;12.52;7.57;;;;;;;;;;5016571;28;20328;-61
2020/12/04 09:27:32;;;;;;;14.40;7.90;;;;;;;;;;5019076;28;20503;-62
2020/12/04 09:29:58;;;;;;;13.35;7.70;;;;;;;;;;5029304;28;20049;-61
2020/12/04 09:32:25;;;;;;;12.38;7.60;;;;;;;;;;5017526;28;20413;-61
2020/12/04 09:34:51;;;;;;;11.38;7.55;;;;;;;;;;5016139;28;20061;-61
2020/12/04 09:37:23;;;;;;;12.10;7.50;;;;;;;;;;5014104;28;20489;-61
2020/12/04 09:40:07;;;;;;;10.98;7.18;;;;;;;;;;5032420;28;20077;-61
2020/12/04 09:42:34;;;;;;;16.83;7.57;;;;;;;;;;5019838;28;20049;-61
2020/12/04 09:45:00;;;;;;;14.55;8.15;;;;;;;;;;5017265;28;20056;-61
2020/12/04 09:47:30;;;;;;;12.00;7.70;;;;;;;;;;5018098;28;20050;-61
2020/12/04 09:49:56;;;;;;;12.10;7.10;;;;;;;;;;5020723;28;20131;-62
2020/12/04 09:52:23;;;;;;;10.68;6.78;;;;;;;;;;5032517;28;20042;-61
2020/12/04 09:54:50;;;;;;;11.00;6.75;;;;;;;;;;5018733;28;20057;-61
2020/12/04 09:57:17;;;;;;;12.48;7.97;;;;;;;;;;5017260;28;20049;-62
2020/12/04 09:59:43;;;;;;;11.15;7.40;;;;;;;;;;5017098;28;20050;-61
2020/12/04 10:02:10;;;;;;;15.95;8.13;;;;;;;;;;5015414;28;20056;-61
2020/12/04 10:04:39;;;;;;;9.95;6.95;;;;;;;;;;5014935;28;20081;-62
2020/12/04 10:07:07;;;;;;;13.43;7.18;;;;;;;;;;5017307;28;20049;-62
2020/12/04 10:09:34;;;;;;;16.60;9.25;;;;;;;;;;5032097;28;20050;-61
2020/12/04 10:12:00;;;;;;;12.13;7.05;;;;;;;;;;5014058;28;20049;-61
2020/12/04 10:14:27;;;;;;;10.63;6.90;;;;;;;;;;5016489;28;20405;-61
2020/12/04 10:16:53;;;;;;;10.43;7.03;;;;;;;;;;5031060;28;20503;-61
2020/12/04 10:19:21;;;;;;;12.02;7.93;;;;;;;;;;5020695;28;20057;-62
2020/12/04 10:21:47;;;;;;;15.45;9.00;;;;;;;;;;5034131;28;20062;-61
2020/12/04 10:24:14;;;;;;;12.18;8.10;;;;;;;;;;5036295;28;20050;-61
2020/12/04 10:26:44;;;;;;;18.02;8.70;;;;;;;;;;5021604;28;20041;-61
2020/12/04 10:29:10;;;;;;;13.27;8.23;;;;;;;;;;5004831;28;20057;-61
2020/12/04 10:31:36;;;;;;;16.17;8.40;;;;;;;;;;5034426;28;20489;-61
2020/12/04 10:34:03;;;;;;;12.48;7.68;;;;;;;;;;5021358;28;20057;-62
2020/12/04 10:36:31;;;;;;;14.27;8.48;;;;;;;;;;5034200;28;20133;-62
2020/12/04 10:38:58;;;;;;;13.13;8.68;;;;;;;;;;5032271;28;20046;-62
2020/12/04 10:41:24;;;;;;;12.15;7.35;;;;;;;;;;5022421;28;20037;-62
2020/12/04 10:43:51;;;;;;;13.48;7.15;;;;;;;;;;5017601;28;20057;-61
2020/12/04 10:46:17;;;;;;;12.00;8.05;;;;;;;;;;5035213;28;20052;-62
2020/12/04 10:48:43;;;;;;;10.75;6.97;;;;;;;;;;5020377;28;20049;-62
2020/12/04 10:51:10;;;;;;;13.88;8.85;;;;;;;;;;5055057;28;20068;-62
2020/12/04 10:53:36;;;;;;;11.02;7.78;;;;;;;;;;5020549;28;20046;-62
2020/12/04 10:56:06;;;;;;;14.95;7.88;;;;;;;;;;5035845;28;20053;-62
2020/12/04 10:58:32;;;;;;;14.60;7.82;;;;;;;;;;5003528;28;20378;-62
2020/12/04 11:00:58;;;;;;;15.88;7.75;;;;;;;;;;5020546;28;20357;-61
2020/12/04 11:05:51;;;;;;;16.13;9.70;;;;;;;;;;5018368;28;20491;-62
2020/12/04 11:08:17;;;;;;;19.30;10.32;;;;;;;;;;5033772;28;20037;-62
2020/12/04 11:10:44;;;;;;;15.35;9.30;;;;;;;;;;5020864;28;20531;-62
2020/12/04 11:13:10;;;;;;;16.42;8.60;;;;;;;;;;5024038;28;20057;-62
2020/12/04 11:15:37;;;;;;;14.00;9.02;;;;;;;;;;5017374;28;20359;-62
2020/12/04 11:18:03;;;;;;;15.90;9.02;;;;;;;;;;5036404;28;20050;-62
2020/12/04 11:20:29;;;;;;;14.32;9.10;;;;;;;;;;5021949;28;20060;-62
2020/12/04 11:22:56;;;;;;;15.40;9.38;;;;;;;;;;5034302;28;20131;-63
2020/12/04 11:25:22;;;;;;;18.75;10.35;;;;;;;;;;5035686;28;20488;-62
2020/12/04 11:27:49;;;;;;;14.95;8.70;;;;;;;;;;5018505;28;20045;-61
2020/12/04 11:30:17;;;;;;;16.65;9.35;;;;;;;;;;5017268;28;20053;-62
2020/12/04 11:32:44;;;;;;;16.42;11.00;;;;;;;;;;5016395;28;20050;-62
2020/12/04 11:35:12;;;;;;;14.05;8.85;;;;;;;;;;5018705;28;20150;-62
2020/12/04 11:37:39;;;;;;;13.20;8.68;;;;;;;;;;5020300;28;20053;-62
2020/12/04 11:40:07;;;;;;;14.45;8.30;;;;;;;;;;5016752;28;20045;-61
2020/12/04 11:42:38;;;;;;;12.85;7.45;;;;;;;;;;5018368;28;20111;-62
2020/12/04 11:45:09;;;;;;;15.73;8.73;;;;;;;;;;5017200;28;20054;-62
2020/12/04 11:47:39;;;;;;;13.90;9.25;;;;;;;;;;5019874;28;20053;-61
2020/12/04 11:50:07;;;;;;;16.42;8.77;;;;;;;;;;5018618;28;20045;-62
2020/12/04 11:52:34;;;;;;;11.60;8.27;;;;;;;;;;5019212;28;20042;-62
2020/12/04 11:55:01;;;;;;;12.40;8.00;;;;;;;;;;5021266;28;20064;-62
2020/12/04 11:57:27;;;;;;;14.43;8.18;;;;;;;;;;5019521;28;20054;-61
2020/12/04 11:59:53;;;;;;;14.93;8.85;;;;;;;;;;5016708;28;20497;-62
2020/12/04 12:02:20;;;;;;;11.23;7.88;;;;;;;;;;5020871;28;20054;-62
2020/12/04 12:04:46;;;;;;;18.77;8.77;;;;;;;;;;5018193;28;20053;-62
2020/12/04 12:07:12;;;;;;;13.27;8.57;;;;;;;;;;5015703;28;20042;-62
2020/12/04 12:09:38;;;;;;;15.70;7.72;;;;;;;;;;5017499;28;20396;-61
2020/12/04 12:12:05;;;;;;;12.20;7.85;;;;;;;;;;5016035;28;20049;-62
2020/12/04 12:14:31;;;;;;;12.38;7.45;;;;;;;;;;5019665;28;20052;-62
2020/12/04 12:16:57;;;;;;;11.05;7.43;;;;;;;;;;5016454;28;20045;-62
2020/12/04 12:19:23;;;;;;;16.30;8.13;;;;;;;;;;5018126;28;20056;-62
2020/12/04 12:21:49;;;;;;;16.02;8.18;;;;;;;;;;5015307;28;20061;-62
2020/12/04 12:24:16;;;;;;;13.23;7.93;;;;;;;;;;5025256;28;20048;-61
2020/12/04 12:26:43;;;;;;;13.07;7.78;;;;;;;;;;5016249;28;20054;-62
2020/12/04 12:29:09;;;;;;;13.57;8.38;;;;;;;;;;5016856;28;20407;-62
2020/12/04 12:31:35;;;;;;;11.60;7.57;;;;;;;;;;5017413;28;20049;-62
2020/12/04 12:34:01;;;;;;;12.25;8.35;;;;;;;;;;5019150;28;20052;-62
2020/12/04 12:36:28;;;;;;;13.73;7.07;;;;;;;;;;5016916;28;20063;-62
2020/12/04 12:38:57;;;;;;;13.20;8.10;;;;;;;;;;5014253;28;20050;-62
2020/12/04 12:41:23;;;;;;;17.60;7.75;;;;;;;;;;5017636;28;20050;-62
2020/12/04 12:43:50;;;;;;;14.60;7.45;;;;;;;;;;5018184;28;20053;-61
2020/12/04 12:46:16;;;;;;;11.05;7.72;;;;;;;;;;5031175;28;20050;-62
2020/12/04 12:48:43;;;;;;;13.63;7.07;;;;;;;;;;5014935;28;20041;-62
2020/12/04 12:51:09;;;;;;;10.05;6.93;;;;;;;;;;5020437;28;20061;-62
2020/12/04 12:53:38;;;;;;;12.82;8.35;;;;;;;;;;5015319;28;20057;-62
2020/12/04 12:56:04;;;;;;;13.65;8.50;;;;;;;;;;5016372;28;20403;-62
2020/12/04 12:58:30;;;;;;;12.23;7.93;;;;;;;;;;5015579;28;20404;-62
2020/12/04 13:00:57;;;;;;;12.82;7.80;;;;;;;;;;5020777;28;20049;-62
2020/12/04 13:03:25;;;;;;;12.27;7.57;;;;;;;;;;5020732;28;20064;-62
2020/12/04 13:05:52;;;;;;;15.32;8.38;;;;;;;;;;5017139;28;20060;-62
2020/12/04 13:08:18;;;;;;;14.57;8.68;;;;;;;;;;5016318;28;20575;-62
2020/12/04 13:10:48;;;;;;;21.42;9.00;;;;;;;;;;5027797;28;20459;-62
2020/12/04 13:13:14;;;;;;;14.38;8.70;;;;;;;;;;5028436;28;20045;-61
2020/12/04 13:15:40;;;;;;;14.52;8.43;;;;;;;;;;5028629;28;20050;-62
2020/12/04 13:18:07;;;;;;;16.77;9.55;;;;;;;;;;5029894;28;20057;-62
2020/12/04 13:20:33;;;;;;;14.95;9.23;;;;;;;;;;5029658;28;20053;-62
2020/12/04 13:23:12;;;;;;;14.77;8.70;;;;;;;;;;5029379;28;20408;-62
2020/12/04 13:25:38;;;;;;;14.13;8.90;;;;;;;;;;5028614;28;20552;-62
2020/12/04 13:28:05;;;;;;;15.15;8.90;;;;;;;;;;5010040;28;20048;-62
2020/12/04 13:30:31;;;;;;;13.38;8.35;;;;;;;;;;5029669;28;20041;-62
2020/12/04 13:33:00;;;;;;;16.42;10.13;;;;;;;;;;5029933;28;20049;-62
2020/12/04 13:35:27;;;;;;;19.92;10.55;;;;;;;;;;5029436;28;20080;-65
2020/12/04 13:37:53;;;;;;;21.27;12.35;;;;;;;;;;5029403;28;20045;-63
2020/12/04 13:40:19;;;;;;;17.75;10.52;;;;;;;;;;5029515;28;20058;-63
2020/12/04 13:42:46;;;;;;;18.10;9.38;;;;;;;;;;5018260;28;20056;-63
2020/12/04 13:45:12;;;;;;;18.02;9.55;;;;;;;;;;5020054;28;20038;-62
2020/12/04 13:47:38;;;;;;;13.40;8.90;;;;;;;;;;5008558;28;20045;-62
2020/12/04 13:50:05;;;;;;;15.07;9.88;;;;;;;;;;5017765;28;20077;-63
2020/12/04 13:52:31;;;;;;;16.38;9.05;;;;;;;;;;5019831;28;20054;-62
2020/12/04 13:54:59;;;;;;;18.05;9.63;;;;;;;;;;5021162;28;20427;-62
2020/12/04 13:57:25;;;;;;;17.00;10.52;;;;;;;;;;5021307;28;20048;-62
2020/12/04 13:59:51;;;;;;;17.02;10.00;;;;;;;;;;5020326;28;20605;-62
2020/12/04 14:02:17;;;;;;;18.67;11.10;;;;;;;;;;5022348;28;20050;-62
2020/12/04 14:04:44;;;;;;;19.73;10.23;;;;;;;;;;5022476;28;20404;-63
2020/12/04 14:07:10;;;;;;;16.00;9.82;;;;;;;;;;5020590;28;20081;-62
2020/12/04 14:09:36;;;;;;;19.02;11.30;;;;;;;;;;5019871;28;20053;-62
2020/12/04 14:12:04;;;;;;;19.33;9.90;;;;;;;;;;5018855;28;20404;-63
2020/12/04 14:14:31;;;;;;;19.30;9.40;;;;;;;;;;5019976;28;20049;-63
2020/12/04 14:16:58;;;;;;;19.52;11.07;;;;;;;;;;5018471;28;20127;-63
2020/12/04 14:19:26;;;;;;;14.15;9.15;;;;;;;;;;5029940;28;20045;-63
2020/12/04 14:21:53;;;;;;;16.38;9.60;;;;;;;;;;5019653;28;20059;-62
2020/12/04 14:24:20;;;;;;;20.23;10.52;;;;;;;;;;5021549;28;20092;-63
2020/12/04 14:26:47;;;;;;;15.15;8.90;;;;;;;;;;5025427;28;20045;-62
2020/12/04 14:29:13;;;;;;;16.73;10.18;;;;;;;;;;5026622;28;20050;-63
2020/12/04 14:31:40;;;;;;;15.43;9.07;;;;;;;;;;5018409;28;20566;-63
2020/12/04 14:34:07;;;;;;;17.60;9.35;;;;;;;;;;5020617;28;20045;-62
2020/12/04 14:36:34;;;;;;;14.82;9.60;;;;;;;;;;5019262;28;20096;-63
2020/12/04 14:39:07;;;;;;;17.58;9.02;;;;;;;;;;5024075;28;20034;-63
2020/12/04 14:41:40;;;;;;;14.57;9.45;;;;;;;;;;5020180;28;20056;-63
2020/12/04 14:44:06;;;;;;;;;;;;;;;;;;5018769;28;20054;-63
2020/12/04 14:46:32;;;;;;;15.60;10.32;;;;;;;;;;5022404;28;19921;-63
2020/12/04 14:48:59;;;;;;;19.42;10.48;;;;;;;;;;5018317;28;20050;-62